sensor_id;sensor_type;location;lat;lon;timestamp;temperature;humidity
59015;DHT22;44799;53.382;14.666;2022-08-03T00:00:13;21.50;77.60
59015;DHT22;44799;53.382;14.666;2022-08-03T00:02:40;21.60;76.80
59015;DHT22;44799;53.382;14.666;2022-08-03T00:05:06;21.60;77.20
59015;DHT22;44799;53.382;14.666;2022-08-03T00:07:33;21.60;77.40
59015;DHT22;44799;53.382;14.666;2022-08-03T00:09:59;21.50;76.30
59015;DHT22;44799;53.382;14.666;2022-08-03T00:12:25;21.60;76.90
59015;DHT22;44799;53.382;14.666;2022-08-03T00:14:51;21.50;77.80
59015;DHT22;44799;53.382;14.666;2022-08-03T00:17:18;21.50;76.60
59015;DHT22;44799;53.382;14.666;2022-08-03T00:19:43;21.50;76.60
59015;DHT22;44799;53.382;14.666;2022-08-03T00:22:09;21.50;77.00
59015;DHT22;44799;53.382;14.666;2022-08-03T00:24:35;21.40;77.30
59015;DHT22;44799;53.382;14.666;2022-08-03T00:27:01;21.40;76.80
59015;DHT22;44799;53.382;14.666;2022-08-03T00:29:27;21.40;76.80
59015;DHT22;44799;53.382;14.666;2022-08-03T00:31:53;21.40;77.60
59015;DHT22;44799;53.382;14.666;2022-08-03T00:34:19;21.40;77.20
59015;DHT22;44799;53.382;14.666;2022-08-03T00:36:45;21.80;77.50
59015;DHT22;44799;53.382;14.666;2022-08-03T00:39:11;21.30;77.10
59015;DHT22;44799;53.382;14.666;2022-08-03T00:41:37;21.30;78.20
59015;DHT22;44799;53.382;14.666;2022-08-03T00:44:03;21.30;79.00
59015;DHT22;44799;53.382;14.666;2022-08-03T00:46:29;21.30;77.70
59015;DHT22;44799;53.382;14.666;2022-08-03T00:48:55;21.30;78.00
59015;DHT22;44799;53.382;14.666;2022-08-03T00:51:21;21.30;78.50
59015;DHT22;44799;53.382;14.666;2022-08-03T00:53:48;21.30;77.80
59015;DHT22;44799;53.382;14.666;2022-08-03T00:56:15;21.30;77.40
59015;DHT22;44799;53.382;14.666;2022-08-03T00:58:43;21.30;77.30
59015;DHT22;44799;53.382;14.666;2022-08-03T01:01:09;21.30;77.70
59015;DHT22;44799;53.382;14.666;2022-08-03T01:03:37;21.20;77.10
59015;DHT22;44799;53.382;14.666;2022-08-03T01:06:16;21.20;78.30
59015;DHT22;44799;53.382;14.666;2022-08-03T01:11:53;21.20;79.00
59015;DHT22;44799;53.382;14.666;2022-08-03T01:14:25;21.10;78.70
59015;DHT22;44799;53.382;14.666;2022-08-03T01:19:59;21.10;78.30
59015;DHT22;44799;53.382;14.666;2022-08-03T01:25:58;21.10;78.30
59015;DHT22;44799;53.382;14.666;2022-08-03T01:28:42;21.10;78.40
59015;DHT22;44799;53.382;14.666;2022-08-03T01:31:17;21.00;78.80
59015;DHT22;44799;53.382;14.666;2022-08-03T01:33:51;21.00;79.20
59015;DHT22;44799;53.382;14.666;2022-08-03T01:36:23;21.00;80.40
59015;DHT22;44799;53.382;14.666;2022-08-03T01:38:54;21.00;79.50
59015;DHT22;44799;53.382;14.666;2022-08-03T01:41:25;21.00;80.60
59015;DHT22;44799;53.382;14.666;2022-08-03T01:43:55;21.00;81.30
59015;DHT22;44799;53.382;14.666;2022-08-03T01:46:23;20.90;81.00
59015;DHT22;44799;53.382;14.666;2022-08-03T01:48:51;21.00;81.00
59015;DHT22;44799;53.382;14.666;2022-08-03T01:51:19;20.90;81.30
59015;DHT22;44799;53.382;14.666;2022-08-03T01:53:47;21.00;80.90
59015;DHT22;44799;53.382;14.666;2022-08-03T01:56:17;21.00;81.50
59015;DHT22;44799;53.382;14.666;2022-08-03T01:58:45;21.00;81.30
59015;DHT22;44799;53.382;14.666;2022-08-03T02:01:14;21.00;81.10
59015;DHT22;44799;53.382;14.666;2022-08-03T02:03:42;21.00;81.10
59015;DHT22;44799;53.382;14.666;2022-08-03T02:06:11;21.00;81.90
59015;DHT22;44799;53.382;14.666;2022-08-03T02:08:42;21.00;81.30
59015;DHT22;44799;53.382;14.666;2022-08-03T02:11:10;21.00;80.60
59015;DHT22;44799;53.382;14.666;2022-08-03T02:13:37;21.00;80.30
59015;DHT22;44799;53.382;14.666;2022-08-03T02:16:04;21.00;80.30
59015;DHT22;44799;53.382;14.666;2022-08-03T02:18:31;21.00;80.60
59015;DHT22;44799;53.382;14.666;2022-08-03T02:21:00;21.10;80.10
59015;DHT22;44799;53.382;14.666;2022-08-03T02:23:27;21.10;80.50
59015;DHT22;44799;53.382;14.666;2022-08-03T02:25:59;21.10;80.30
59015;DHT22;44799;53.382;14.666;2022-08-03T02:28:39;21.10;81.10
59015;DHT22;44799;53.382;14.666;2022-08-03T02:31:19;21.10;81.50
59015;DHT22;44799;53.382;14.666;2022-08-03T02:33:51;21.10;80.30
59015;DHT22;44799;53.382;14.666;2022-08-03T02:36:28;21.10;80.70
59015;DHT22;44799;53.382;14.666;2022-08-03T02:38:58;21.10;81.80
59015;DHT22;44799;53.382;14.666;2022-08-03T02:41:28;21.10;81.10
59015;DHT22;44799;53.382;14.666;2022-08-03T02:43:56;21.10;81.60
59015;DHT22;44799;53.382;14.666;2022-08-03T02:46:27;21.10;81.30
59015;DHT22;44799;53.382;14.666;2022-08-03T02:48:54;21.10;80.30
59015;DHT22;44799;53.382;14.666;2022-08-03T02:51:22;21.00;81.10
59015;DHT22;44799;53.382;14.666;2022-08-03T02:53:48;21.00;80.80
59015;DHT22;44799;53.382;14.666;2022-08-03T02:56:16;21.00;81.40
59015;DHT22;44799;53.382;14.666;2022-08-03T02:58:44;21.00;81.10
59015;DHT22;44799;53.382;14.666;2022-08-03T03:01:12;21.00;81.30
59015;DHT22;44799;53.382;14.666;2022-08-03T03:03:40;20.80;81.90
59015;DHT22;44799;53.382;14.666;2022-08-03T03:06:07;21.00;82.00
59015;DHT22;44799;53.382;14.666;2022-08-03T03:08:33;21.00;83.00
59015;DHT22;44799;53.382;14.666;2022-08-03T03:10:59;21.00;81.80
59015;DHT22;44799;53.382;14.666;2022-08-03T03:13:30;21.10;83.00
59015;DHT22;44799;53.382;14.666;2022-08-03T03:16:00;21.10;83.00
59015;DHT22;44799;53.382;14.666;2022-08-03T03:18:28;21.00;83.10
59015;DHT22;44799;53.382;14.666;2022-08-03T03:20:56;21.00;83.70
59015;DHT22;44799;53.382;14.666;2022-08-03T03:23:24;21.00;83.70
59015;DHT22;44799;53.382;14.666;2022-08-03T03:25:51;21.00;83.30
59015;DHT22;44799;53.382;14.666;2022-08-03T03:28:18;21.00;83.40
59015;DHT22;44799;53.382;14.666;2022-08-03T03:30:44;20.90;83.30
59015;DHT22;44799;53.382;14.666;2022-08-03T03:33:11;20.90;82.70
59015;DHT22;44799;53.382;14.666;2022-08-03T03:35:39;20.90;82.40
59015;DHT22;44799;53.382;14.666;2022-08-03T03:38:06;20.80;82.30
59015;DHT22;44799;53.382;14.666;2022-08-03T03:40:33;20.80;83.30
59015;DHT22;44799;53.382;14.666;2022-08-03T03:42:59;20.70;83.30
59015;DHT22;44799;53.382;14.666;2022-08-03T03:45:25;20.70;83.70
59015;DHT22;44799;53.382;14.666;2022-08-03T03:47:52;20.70;82.60
59015;DHT22;44799;53.382;14.666;2022-08-03T03:50:18;20.60;83.00
59015;DHT22;44799;53.382;14.666;2022-08-03T03:52:45;20.60;83.10
59015;DHT22;44799;53.382;14.666;2022-08-03T03:55:15;20.50;83.40
59015;DHT22;44799;53.382;14.666;2022-08-03T03:57:41;20.50;83.70
59015;DHT22;44799;53.382;14.666;2022-08-03T04:00:07;20.50;84.90
59015;DHT22;44799;53.382;14.666;2022-08-03T04:02:33;20.50;85.00
59015;DHT22;44799;53.382;14.666;2022-08-03T04:04:59;20.40;84.90
59015;DHT22;44799;53.382;14.666;2022-08-03T04:07:59;20.40;84.60
59015;DHT22;44799;53.382;14.666;2022-08-03T04:10:49;20.40;85.10
59015;DHT22;44799;53.382;14.666;2022-08-03T04:14:03;20.40;86.10
59015;DHT22;44799;53.382;14.666;2022-08-03T04:16:27;20.40;86.40
59015;DHT22;44799;53.382;14.666;2022-08-03T04:18:58;20.30;87.70
59015;DHT22;44799;53.382;14.666;2022-08-03T04:21:25;20.10;88.30
59015;DHT22;44799;53.382;14.666;2022-08-03T04:23:56;20.30;87.40
59015;DHT22;44799;53.382;14.666;2022-08-03T04:26:23;20.30;87.00
59015;DHT22;44799;53.382;14.666;2022-08-03T04:28:53;20.20;87.40
59015;DHT22;44799;53.382;14.666;2022-08-03T04:31:23;20.20;88.00
59015;DHT22;44799;53.382;14.666;2022-08-03T04:33:50;20.20;88.00
59015;DHT22;44799;53.382;14.666;2022-08-03T04:36:21;20.20;88.30
59015;DHT22;44799;53.382;14.666;2022-08-03T04:38:56;20.20;88.00
59015;DHT22;44799;53.382;14.666;2022-08-03T04:41:25;20.20;88.10
59015;DHT22;44799;53.382;14.666;2022-08-03T04:43:55;20.20;88.30
59015;DHT22;44799;53.382;14.666;2022-08-03T04:46:22;20.20;88.50
59015;DHT22;44799;53.382;14.666;2022-08-03T04:48:49;20.20;88.60
59015;DHT22;44799;53.382;14.666;2022-08-03T04:51:16;20.20;87.90
59015;DHT22;44799;53.382;14.666;2022-08-03T04:53:42;20.30;88.20
59015;DHT22;44799;53.382;14.666;2022-08-03T04:56:09;20.30;88.10
59015;DHT22;44799;53.382;14.666;2022-08-03T04:58:35;20.30;88.30
59015;DHT22;44799;53.382;14.666;2022-08-03T05:01:01;20.40;89.20
59015;DHT22;44799;53.382;14.666;2022-08-03T05:03:26;20.40;89.40
59015;DHT22;44799;53.382;14.666;2022-08-03T05:05:53;20.50;88.60
59015;DHT22;44799;53.382;14.666;2022-08-03T05:08:19;20.60;88.00
59015;DHT22;44799;53.382;14.666;2022-08-03T05:10:46;20.60;88.10
59015;DHT22;44799;53.382;14.666;2022-08-03T05:13:12;20.70;87.50
59015;DHT22;44799;53.382;14.666;2022-08-03T05:15:38;20.80;87.10
59015;DHT22;44799;53.382;14.666;2022-08-03T05:18:04;20.90;87.20
59015;DHT22;44799;53.382;14.666;2022-08-03T05:20:30;21.00;87.60
59015;DHT22;44799;53.382;14.666;2022-08-03T05:22:57;21.10;87.10
59015;DHT22;44799;53.382;14.666;2022-08-03T05:25:24;21.20;87.50
59015;DHT22;44799;53.382;14.666;2022-08-03T05:27:51;21.30;86.60
59015;DHT22;44799;53.382;14.666;2022-08-03T05:30:16;21.40;84.30
59015;DHT22;44799;53.382;14.666;2022-08-03T05:32:42;21.50;84.60
59015;DHT22;44799;53.382;14.666;2022-08-03T05:35:08;21.60;84.30
59015;DHT22;44799;53.382;14.666;2022-08-03T05:37:34;21.80;84.30
59015;DHT22;44799;53.382;14.666;2022-08-03T05:40:00;21.80;83.80
59015;DHT22;44799;53.382;14.666;2022-08-03T05:42:26;21.90;84.00
59015;DHT22;44799;53.382;14.666;2022-08-03T05:44:51;22.00;82.30
59015;DHT22;44799;53.382;14.666;2022-08-03T05:47:17;22.10;84.50
59015;DHT22;44799;53.382;14.666;2022-08-03T05:49:43;22.20;83.00
59015;DHT22;44799;53.382;14.666;2022-08-03T05:52:09;22.30;82.10
59015;DHT22;44799;53.382;14.666;2022-08-03T05:54:35;22.30;81.00
59015;DHT22;44799;53.382;14.666;2022-08-03T05:57:01;22.40;82.10
59015;DHT22;44799;53.382;14.666;2022-08-03T05:59:27;22.50;79.90
59015;DHT22;44799;53.382;14.666;2022-08-03T06:01:53;22.60;79.80
59015;DHT22;44799;53.382;14.666;2022-08-03T06:04:19;22.70;82.50
59015;DHT22;44799;53.382;14.666;2022-08-03T06:06:44;22.80;80.90
59015;DHT22;44799;53.382;14.666;2022-08-03T06:09:10;22.90;79.60
59015;DHT22;44799;53.382;14.666;2022-08-03T06:11:36;22.90;81.30
59015;DHT22;44799;53.382;14.666;2022-08-03T06:14:02;23.00;81.20
59015;DHT22;44799;53.382;14.666;2022-08-03T06:16:28;23.00;82.20
59015;DHT22;44799;53.382;14.666;2022-08-03T06:18:54;23.10;81.40
59015;DHT22;44799;53.382;14.666;2022-08-03T06:21:20;23.20;81.40
59015;DHT22;44799;53.382;14.666;2022-08-03T06:23:47;23.30;79.40
59015;DHT22;44799;53.382;14.666;2022-08-03T06:26:13;23.40;80.50
59015;DHT22;44799;53.382;14.666;2022-08-03T06:28:39;23.50;78.40
59015;DHT22;44799;53.382;14.666;2022-08-03T06:31:05;23.60;77.50
59015;DHT22;44799;53.382;14.666;2022-08-03T06:33:31;23.70;77.10
59015;DHT22;44799;53.382;14.666;2022-08-03T06:35:57;23.80;76.80
59015;DHT22;44799;53.382;14.666;2022-08-03T06:38:22;24.00;78.20
59015;DHT22;44799;53.382;14.666;2022-08-03T06:40:48;24.10;77.60
59015;DHT22;44799;53.382;14.666;2022-08-03T06:43:14;24.10;73.80
59015;DHT22;44799;53.382;14.666;2022-08-03T06:45:40;24.20;73.40
59015;DHT22;44799;53.382;14.666;2022-08-03T06:48:11;24.40;75.60
59015;DHT22;44799;53.382;14.666;2022-08-03T06:50:38;24.50;74.80
59015;DHT22;44799;53.382;14.666;2022-08-03T06:53:05;24.60;72.10
59015;DHT22;44799;53.382;14.666;2022-08-03T06:55:31;24.70;70.80
59015;DHT22;44799;53.382;14.666;2022-08-03T06:57:57;24.80;71.20
59015;DHT22;44799;53.382;14.666;2022-08-03T07:00:24;24.90;69.80
59015;DHT22;44799;53.382;14.666;2022-08-03T07:02:50;25.00;70.10
59015;DHT22;44799;53.382;14.666;2022-08-03T07:05:17;25.10;68.20
59015;DHT22;44799;53.382;14.666;2022-08-03T07:07:43;25.20;66.50
59015;DHT22;44799;53.382;14.666;2022-08-03T07:10:09;25.30;66.00
59015;DHT22;44799;53.382;14.666;2022-08-03T07:12:38;25.40;65.30
59015;DHT22;44799;53.382;14.666;2022-08-03T07:15:05;25.40;65.90
59015;DHT22;44799;53.382;14.666;2022-08-03T07:17:33;25.40;65.90
59015;DHT22;44799;53.382;14.666;2022-08-03T07:20:01;25.30;65.20
59015;DHT22;44799;53.382;14.666;2022-08-03T07:22:27;25.40;65.10
59015;DHT22;44799;53.382;14.666;2022-08-03T07:24:53;25.50;64.70
59015;DHT22;44799;53.382;14.666;2022-08-03T07:27:19;25.60;65.70
59015;DHT22;44799;53.382;14.666;2022-08-03T07:29:45;25.70;65.30
59015;DHT22;44799;53.382;14.666;2022-08-03T07:32:11;25.70;63.80
59015;DHT22;44799;53.382;14.666;2022-08-03T07:34:37;25.80;64.40
59015;DHT22;44799;53.382;14.666;2022-08-03T07:37:02;25.90;65.10
59015;DHT22;44799;53.382;14.666;2022-08-03T07:39:28;26.10;64.20
59015;DHT22;44799;53.382;14.666;2022-08-03T07:41:54;26.20;65.40
59015;DHT22;44799;53.382;14.666;2022-08-03T07:44:20;26.10;64.60
59015;DHT22;44799;53.382;14.666;2022-08-03T07:46:46;26.30;64.20
59015;DHT22;44799;53.382;14.666;2022-08-03T07:49:12;26.20;64.50
59015;DHT22;44799;53.382;14.666;2022-08-03T07:51:38;26.30;64.50
59015;DHT22;44799;53.382;14.666;2022-08-03T07:54:04;26.30;63.60
59015;DHT22;44799;53.382;14.666;2022-08-03T07:56:31;26.30;62.90
59015;DHT22;44799;53.382;14.666;2022-08-03T07:58:57;26.30;64.70
59015;DHT22;44799;53.382;14.666;2022-08-03T08:01:24;26.40;63.60
59015;DHT22;44799;53.382;14.666;2022-08-03T08:03:50;26.40;64.20
59015;DHT22;44799;53.382;14.666;2022-08-03T08:06:16;26.40;63.60
59015;DHT22;44799;53.382;14.666;2022-08-03T08:08:42;26.30;64.00
59015;DHT22;44799;53.382;14.666;2022-08-03T08:11:08;26.30;63.40
59015;DHT22;44799;53.382;14.666;2022-08-03T08:13:34;26.40;63.50
59015;DHT22;44799;53.382;14.666;2022-08-03T08:16:02;26.50;63.40
59015;DHT22;44799;53.382;14.666;2022-08-03T08:18:28;26.60;62.40
59015;DHT22;44799;53.382;14.666;2022-08-03T08:20:54;26.70;63.00
59015;DHT22;44799;53.382;14.666;2022-08-03T08:23:20;26.90;62.70
59015;DHT22;44799;53.382;14.666;2022-08-03T08:25:52;26.90;60.30
59015;DHT22;44799;53.382;14.666;2022-08-03T08:28:19;26.90;59.10
59015;DHT22;44799;53.382;14.666;2022-08-03T08:30:45;27.00;60.30
59015;DHT22;44799;53.382;14.666;2022-08-03T08:33:11;27.00;59.00
59015;DHT22;44799;53.382;14.666;2022-08-03T08:35:37;27.10;58.00
59015;DHT22;44799;53.382;14.666;2022-08-03T08:38:03;27.20;57.60
59015;DHT22;44799;53.382;14.666;2022-08-03T08:40:29;27.20;57.40
59015;DHT22;44799;53.382;14.666;2022-08-03T08:42:55;27.30;57.70
59015;DHT22;44799;53.382;14.666;2022-08-03T08:45:21;27.40;58.10
59015;DHT22;44799;53.382;14.666;2022-08-03T08:47:48;27.40;56.30
59015;DHT22;44799;53.382;14.666;2022-08-03T08:50:18;27.50;57.10
59015;DHT22;44799;53.382;14.666;2022-08-03T08:52:47;27.50;55.80
59015;DHT22;44799;53.382;14.666;2022-08-03T08:55:21;27.50;57.50
59015;DHT22;44799;53.382;14.666;2022-08-03T08:57:51;27.60;57.10
59015;DHT22;44799;53.382;14.666;2022-08-03T09:00:21;27.50;56.80
59015;DHT22;44799;53.382;14.666;2022-08-03T09:02:47;27.60;56.80
59015;DHT22;44799;53.382;14.666;2022-08-03T09:05:17;27.70;56.80
59015;DHT22;44799;53.382;14.666;2022-08-03T09:07:45;27.80;57.60
59015;DHT22;44799;53.382;14.666;2022-08-03T09:10:13;27.90;54.60
59015;DHT22;44799;53.382;14.666;2022-08-03T09:12:50;27.90;57.30
59015;DHT22;44799;53.382;14.666;2022-08-03T09:15:31;28.00;55.80
59015;DHT22;44799;53.382;14.666;2022-08-03T09:17:59;28.10;56.00
59015;DHT22;44799;53.382;14.666;2022-08-03T09:20:27;28.10;56.70
59015;DHT22;44799;53.382;14.666;2022-08-03T09:23:08;28.10;56.30
59015;DHT22;44799;53.382;14.666;2022-08-03T09:25:39;28.10;54.70
59015;DHT22;44799;53.382;14.666;2022-08-03T09:28:09;28.10;55.50
59015;DHT22;44799;53.382;14.666;2022-08-03T09:30:40;28.20;54.90
59015;DHT22;44799;53.382;14.666;2022-08-03T09:33:07;28.20;55.50
59015;DHT22;44799;53.382;14.666;2022-08-03T09:35:40;28.20;54.40
59015;DHT22;44799;53.382;14.666;2022-08-03T09:38:15;28.20;54.90
59015;DHT22;44799;53.382;14.666;2022-08-03T09:40:42;28.40;55.50
59015;DHT22;44799;53.382;14.666;2022-08-03T09:43:09;28.50;55.30
59015;DHT22;44799;53.382;14.666;2022-08-03T09:45:36;28.60;55.60
59015;DHT22;44799;53.382;14.666;2022-08-03T09:50:52;28.60;56.30
59015;DHT22;44799;53.382;14.666;2022-08-03T09:53:18;28.80;56.00
59015;DHT22;44799;53.382;14.666;2022-08-03T09:56:01;28.80;56.50
59015;DHT22;44799;53.382;14.666;2022-08-03T09:58:29;28.80;55.50
59015;DHT22;44799;53.382;14.666;2022-08-03T10:01:00;28.80;56.70
59015;DHT22;44799;53.382;14.666;2022-08-03T10:03:30;28.90;56.50
59015;DHT22;44799;53.382;14.666;2022-08-03T10:05:57;29.00;56.90
59015;DHT22;44799;53.382;14.666;2022-08-03T10:08:23;29.00;56.00
59015;DHT22;44799;53.382;14.666;2022-08-03T10:10:50;29.10;54.90
59015;DHT22;44799;53.382;14.666;2022-08-03T10:13:21;29.20;55.90
59015;DHT22;44799;53.382;14.666;2022-08-03T10:15:47;29.20;55.10
59015;DHT22;44799;53.382;14.666;2022-08-03T10:18:13;29.30;54.40
59015;DHT22;44799;53.382;14.666;2022-08-03T10:20:54;29.40;55.50
59015;DHT22;44799;53.382;14.666;2022-08-03T10:23:24;29.40;55.60
59015;DHT22;44799;53.382;14.666;2022-08-03T10:25:53;29.50;55.20
59015;DHT22;44799;53.382;14.666;2022-08-03T10:28:21;29.50;55.10
59015;DHT22;44799;53.382;14.666;2022-08-03T10:30:50;29.60;55.70
59015;DHT22;44799;53.382;14.666;2022-08-03T10:33:23;29.60;54.40
59015;DHT22;44799;53.382;14.666;2022-08-03T10:35:55;29.70;55.00
59015;DHT22;44799;53.382;14.666;2022-08-03T10:38:28;29.70;55.00
59015;DHT22;44799;53.382;14.666;2022-08-03T10:40:55;29.80;54.80
59015;DHT22;44799;53.382;14.666;2022-08-03T10:43:26;29.80;53.80
59015;DHT22;44799;53.382;14.666;2022-08-03T10:45:53;29.90;53.00
59015;DHT22;44799;53.382;14.666;2022-08-03T10:48:20;30.00;52.70
59015;DHT22;44799;53.382;14.666;2022-08-03T10:50:48;30.00;51.90
59015;DHT22;44799;53.382;14.666;2022-08-03T10:53:15;30.00;53.10
59015;DHT22;44799;53.382;14.666;2022-08-03T10:55:42;30.00;54.80
59015;DHT22;44799;53.382;14.666;2022-08-03T11:01:11;30.10;53.50
59015;DHT22;44799;53.382;14.666;2022-08-03T11:06:25;30.10;54.30
59015;DHT22;44799;53.382;14.666;2022-08-03T11:11:37;29.90;53.90
59015;DHT22;44799;53.382;14.666;2022-08-03T11:14:09;29.90;54.40
59015;DHT22;44799;53.382;14.666;2022-08-03T11:17:05;30.00;53.40
59015;DHT22;44799;53.382;14.666;2022-08-03T11:19:43;30.00;53.00
59015;DHT22;44799;53.382;14.666;2022-08-03T11:22:09;29.90;54.50
59015;DHT22;44799;53.382;14.666;2022-08-03T11:35:13;30.30;53.70
59015;DHT22;44799;53.382;14.666;2022-08-03T11:40:49;30.40;54.10
59015;DHT22;44799;53.382;14.666;2022-08-03T11:46:03;30.80;54.70
59015;DHT22;44799;53.382;14.666;2022-08-03T11:48:40;31.00;54.50
59015;DHT22;44799;53.382;14.666;2022-08-03T11:51:24;31.20;54.60
59015;DHT22;44799;53.382;14.666;2022-08-03T11:53:55;31.40;52.40
59015;DHT22;44799;53.382;14.666;2022-08-03T11:56:21;31.60;53.40
59015;DHT22;44799;53.382;14.666;2022-08-03T11:58:48;31.80;52.60
59015;DHT22;44799;53.382;14.666;2022-08-03T12:01:14;32.00;51.60
59015;DHT22;44799;53.382;14.666;2022-08-03T12:03:44;32.10;51.50
59015;DHT22;44799;53.382;14.666;2022-08-03T12:06:11;32.20;51.60
59015;DHT22;44799;53.382;14.666;2022-08-03T12:08:38;32.40;50.70
59015;DHT22;44799;53.382;14.666;2022-08-03T12:11:06;32.40;50.90
59015;DHT22;44799;53.382;14.666;2022-08-03T12:13:45;32.50;49.90
59015;DHT22;44799;53.382;14.666;2022-08-03T12:16:19;32.80;51.80
59015;DHT22;44799;53.382;14.666;2022-08-03T12:18:59;32.70;50.20
59015;DHT22;44799;53.382;14.666;2022-08-03T12:21:26;33.00;49.40
59015;DHT22;44799;53.382;14.666;2022-08-03T12:23:57;33.20;48.80
59015;DHT22;44799;53.382;14.666;2022-08-03T12:26:25;33.50;49.30
59015;DHT22;44799;53.382;14.666;2022-08-03T12:28:51;33.50;48.80
59015;DHT22;44799;53.382;14.666;2022-08-03T12:31:17;33.80;48.50
59015;DHT22;44799;53.382;14.666;2022-08-03T12:33:56;34.00;47.70
59015;DHT22;44799;53.382;14.666;2022-08-03T12:36:23;34.10;47.70
59015;DHT22;44799;53.382;14.666;2022-08-03T12:38:58;34.40;47.80
59015;DHT22;44799;53.382;14.666;2022-08-03T12:43:54;34.80;47.60
59015;DHT22;44799;53.382;14.666;2022-08-03T12:46:20;34.70;47.80
59015;DHT22;44799;53.382;14.666;2022-08-03T12:49:05;34.90;46.60
59015;DHT22;44799;53.382;14.666;2022-08-03T12:54:09;35.10;46.30
59015;DHT22;44799;53.382;14.666;2022-08-03T12:57:02;35.30;46.30
59015;DHT22;44799;53.382;14.666;2022-08-03T12:59:37;35.60;45.50
59015;DHT22;44799;53.382;14.666;2022-08-03T13:02:17;35.80;44.90
59015;DHT22;44799;53.382;14.666;2022-08-03T13:04:43;36.10;45.70
59015;DHT22;44799;53.382;14.666;2022-08-03T13:07:13;36.20;44.80
59015;DHT22;44799;53.382;14.666;2022-08-03T13:09:46;36.40;44.80
59015;DHT22;44799;53.382;14.666;2022-08-03T13:12:23;36.50;45.70
59015;DHT22;44799;53.382;14.666;2022-08-03T13:14:51;36.60;45.10
59015;DHT22;44799;53.382;14.666;2022-08-03T13:17:17;36.60;45.20
59015;DHT22;44799;53.382;14.666;2022-08-03T13:19:44;36.50;45.40
59015;DHT22;44799;53.382;14.666;2022-08-03T13:22:11;36.70;44.70
59015;DHT22;44799;53.382;14.666;2022-08-03T13:24:37;36.90;44.20
59015;DHT22;44799;53.382;14.666;2022-08-03T13:27:03;37.20;43.70
59015;DHT22;44799;53.382;14.666;2022-08-03T13:29:32;37.70;44.40
59015;DHT22;44799;53.382;14.666;2022-08-03T13:31:59;37.90;43.70
59015;DHT22;44799;53.382;14.666;2022-08-03T13:34:24;38.00;43.30
59015;DHT22;44799;53.382;14.666;2022-08-03T13:36:53;38.00;42.60
59015;DHT22;44799;53.382;14.666;2022-08-03T13:39:19;38.20;43.10
59015;DHT22;44799;53.382;14.666;2022-08-03T13:41:45;38.40;42.90
59015;DHT22;44799;53.382;14.666;2022-08-03T13:44:12;38.50;43.20
59015;DHT22;44799;53.382;14.666;2022-08-03T13:46:39;38.90;42.30
59015;DHT22;44799;53.382;14.666;2022-08-03T13:49:06;39.20;42.60
59015;DHT22;44799;53.382;14.666;2022-08-03T13:51:32;39.60;42.00
59015;DHT22;44799;53.382;14.666;2022-08-03T13:53:58;39.60;42.10
59015;DHT22;44799;53.382;14.666;2022-08-03T13:56:27;39.50;41.30
59015;DHT22;44799;53.382;14.666;2022-08-03T13:58:54;39.70;41.40
59015;DHT22;44799;53.382;14.666;2022-08-03T14:01:20;39.80;41.60
59015;DHT22;44799;53.382;14.666;2022-08-03T14:03:46;39.90;42.10
59015;DHT22;44799;53.382;14.666;2022-08-03T14:06:14;39.80;41.20
59015;DHT22;44799;53.382;14.666;2022-08-03T14:08:40;39.80;41.80
59015;DHT22;44799;53.382;14.666;2022-08-03T14:11:06;40.00;41.40
59015;DHT22;44799;53.382;14.666;2022-08-03T14:13:32;40.40;40.60
59015;DHT22;44799;53.382;14.666;2022-08-03T14:15:58;40.60;40.30
59015;DHT22;44799;53.382;14.666;2022-08-03T14:18:24;40.50;40.10
59015;DHT22;44799;53.382;14.666;2022-08-03T14:20:50;40.60;39.60
59015;DHT22;44799;53.382;14.666;2022-08-03T14:23:16;40.90;40.70
59015;DHT22;44799;53.382;14.666;2022-08-03T14:25:42;41.10;39.70
59015;DHT22;44799;53.382;14.666;2022-08-03T14:28:08;41.40;40.10
59015;DHT22;44799;53.382;14.666;2022-08-03T14:30:34;41.80;40.50
59015;DHT22;44799;53.382;14.666;2022-08-03T14:33:01;42.00;40.90
59015;DHT22;44799;53.382;14.666;2022-08-03T14:35:27;41.20;38.80
59015;DHT22;44799;53.382;14.666;2022-08-03T14:37:53;41.00;39.60
59015;DHT22;44799;53.382;14.666;2022-08-03T14:40:19;40.30;39.80
59015;DHT22;44799;53.382;14.666;2022-08-03T14:42:46;40.20;39.20
59015;DHT22;44799;53.382;14.666;2022-08-03T14:45:12;40.00;39.30
59015;DHT22;44799;53.382;14.666;2022-08-03T14:47:39;40.10;39.10
59015;DHT22;44799;53.382;14.666;2022-08-03T14:50:06;39.90;39.80
59015;DHT22;44799;53.382;14.666;2022-08-03T14:52:32;39.70;40.60
59015;DHT22;44799;53.382;14.666;2022-08-03T14:54:59;39.50;40.90
59015;DHT22;44799;53.382;14.666;2022-08-03T14:57:25;39.80;41.30
59015;DHT22;44799;53.382;14.666;2022-08-03T14:59:51;40.10;40.30
59015;DHT22;44799;53.382;14.666;2022-08-03T15:02:18;40.30;40.60
59015;DHT22;44799;53.382;14.666;2022-08-03T15:04:44;40.20;40.20
59015;DHT22;44799;53.382;14.666;2022-08-03T15:07:10;40.20;40.60
59015;DHT22;44799;53.382;14.666;2022-08-03T15:09:36;40.50;40.40
59015;DHT22;44799;53.382;14.666;2022-08-03T15:12:04;40.80;40.20
59015;DHT22;44799;53.382;14.666;2022-08-03T15:14:30;41.40;39.80
59015;DHT22;44799;53.382;14.666;2022-08-03T15:16:56;41.80;38.70
59015;DHT22;44799;53.382;14.666;2022-08-03T15:19:22;42.00;38.30
59015;DHT22;44799;53.382;14.666;2022-08-03T15:21:48;42.00;38.30
59015;DHT22;44799;53.382;14.666;2022-08-03T15:24:14;42.40;38.50
59015;DHT22;44799;53.382;14.666;2022-08-03T15:26:40;42.90;37.80
59015;DHT22;44799;53.382;14.666;2022-08-03T15:29:06;43.10;37.50
59015;DHT22;44799;53.382;14.666;2022-08-03T15:31:33;43.40;37.90
59015;DHT22;44799;53.382;14.666;2022-08-03T15:33:58;43.90;36.90
59015;DHT22;44799;53.382;14.666;2022-08-03T15:36:24;44.40;36.60
59015;DHT22;44799;53.382;14.666;2022-08-03T15:38:51;44.40;36.20
59015;DHT22;44799;53.382;14.666;2022-08-03T15:41:17;44.40;35.60
59015;DHT22;44799;53.382;14.666;2022-08-03T15:43:42;44.60;35.80
59015;DHT22;44799;53.382;14.666;2022-08-03T15:46:11;45.00;35.70
59015;DHT22;44799;53.382;14.666;2022-08-03T15:48:37;45.40;35.40
59015;DHT22;44799;53.382;14.666;2022-08-03T15:51:05;45.90;35.10
59015;DHT22;44799;53.382;14.666;2022-08-03T15:53:31;46.10;35.50
59015;DHT22;44799;53.382;14.666;2022-08-03T15:55:58;45.90;34.90
59015;DHT22;44799;53.382;14.666;2022-08-03T15:58:24;45.60;34.70
59015;DHT22;44799;53.382;14.666;2022-08-03T16:00:55;44.40;35.20
59015;DHT22;44799;53.382;14.666;2022-08-03T16:03:23;43.90;36.20